createdAt,value
2023-04-27T00:00:31.062Z,223.81
2023-04-27T00:01:31.057Z,223.29
2023-04-27T00:02:31.227Z,222.86
2023-04-27T00:03:31.304Z,224.31
2023-04-27T00:04:31.318Z,223.24
2023-04-27T00:05:34.340Z,225.07
2023-04-27T00:06:31.122Z,226.20
2023-04-27T00:07:31.196Z,224.92
2023-04-27T00:08:31.105Z,222.15
2023-04-27T00:09:31.115Z,223.44
2023-04-27T00:10:31.114Z,225.18
2023-04-27T00:11:31.087Z,224.50
2023-04-27T00:12:31.087Z,223.98
2023-04-27T00:13:31.108Z,223.03
2023-04-27T00:14:31.088Z,224.26
2023-04-27T00:15:31.066Z,224.04
2023-04-27T00:16:31.790Z,224.36
2023-04-27T00:17:31.128Z,227.00
2023-04-27T00:18:31.072Z,224.88
2023-04-27T00:19:31.039Z,223.76
2023-04-27T00:20:31.028Z,224.39
2023-04-27T00:21:31.044Z,225.82
2023-04-27T00:22:31.011Z,224.83
2023-04-27T00:23:30.997Z,223.59
2023-04-27T00:24:31.029Z,225.09
2023-04-27T00:25:31.016Z,225.03
2023-04-27T00:26:30.982Z,223.91
2023-04-27T00:27:30.983Z,223.18
2023-04-27T00:28:30.976Z,225.62
2023-04-27T00:29:30.959Z,221.47
2023-04-27T00:30:30.957Z,223.51
2023-04-27T00:31:30.972Z,224.73
2023-04-27T00:32:30.970Z,224.32
2023-04-27T00:33:30.975Z,226.03
2023-04-27T00:34:31.001Z,224.59
2023-04-27T00:35:30.930Z,226.27
2023-04-27T00:36:30.908Z,224.89
2023-04-27T00:37:30.951Z,223.96
2023-04-27T00:38:30.932Z,225.24
2023-04-27T00:39:30.891Z,222.67
2023-04-27T00:40:30.880Z,224.55
2023-04-27T00:41:30.922Z,224.22
2023-04-27T00:42:30.920Z,226.68
2023-04-27T00:43:30.875Z,224.63
2023-04-27T00:44:30.865Z,223.47
2023-04-27T00:45:30.895Z,224.40
2023-04-27T00:46:30.958Z,225.08
2023-04-27T00:47:30.928Z,223.70
2023-04-27T00:48:30.885Z,222.46
2023-04-27T00:49:30.815Z,225.34
2023-04-27T00:50:30.870Z,223.39
2023-04-27T00:51:30.842Z,224.26
2023-04-27T00:52:30.807Z,224.98
2023-04-27T00:53:30.798Z,224.66
2023-04-27T00:54:30.815Z,222.62
2023-04-27T00:55:30.801Z,224.35
2023-04-27T00:56:30.812Z,223.97
2023-04-27T00:57:30.808Z,224.20
2023-04-27T00:58:30.782Z,222.99
2023-04-27T00:59:30.751Z,224.88
2023-04-27T01:00:31.739Z,222.39
2023-04-27T01:01:30.794Z,222.94
2023-04-27T01:02:30.860Z,224.82
2023-04-27T01:03:30.859Z,224.40
2023-04-27T01:04:30.948Z,226.11
2023-04-27T01:05:32.473Z,223.80
2023-04-27T01:06:30.725Z,223.86
2023-04-27T01:07:30.735Z,223.18
2023-04-27T01:08:30.758Z,223.10
2023-04-27T01:09:30.731Z,225.87
2023-04-27T01:10:30.697Z,225.23
2023-04-27T01:11:30.701Z,224.60
2023-04-27T01:12:30.734Z,223.14
2023-04-27T01:13:30.663Z,223.46
2023-04-27T01:14:30.671Z,224.59
2023-04-27T01:15:30.761Z,224.27
2023-04-27T01:16:31.312Z,222.66
2023-04-27T01:17:30.700Z,224.25
2023-04-27T01:18:30.671Z,224.95
2023-04-27T01:19:30.710Z,223.06
2023-04-27T01:20:30.680Z,223.70
2023-04-27T01:21:30.659Z,222.98
2023-04-27T01:22:30.615Z,223.42
2023-04-27T01:23:30.610Z,222.98
2023-04-27T01:24:30.608Z,222.95
2023-04-27T01:25:30.613Z,223.86
2023-04-27T01:26:30.618Z,221.72
2023-04-27T01:27:30.797Z,223.14
2023-04-27T01:28:30.654Z,223.91
2023-04-27T01:29:30.689Z,222.88
2023-04-27T01:30:30.777Z,221.81
2023-04-27T01:31:30.876Z,222.69
2023-04-27T01:32:31.443Z,221.66
2023-04-27T01:33:30.776Z,221.33
2023-04-27T01:34:30.821Z,222.48
2023-04-27T01:35:30.821Z,220.91
2023-04-27T01:36:30.866Z,222.41
2023-04-27T01:37:30.878Z,222.36
2023-04-27T01:38:30.886Z,223.63
2023-04-27T01:39:30.889Z,222.04
2023-04-27T01:40:30.926Z,222.20
2023-04-27T01:41:30.912Z,223.05
2023-04-27T01:42:30.920Z,222.21
2023-04-27T01:43:31.028Z,223.02
2023-04-27T01:44:31.030Z,221.14
2023-04-27T01:45:30.997Z,222.84
2023-04-27T01:46:31.080Z,223.58
2023-04-27T01:47:31.125Z,222.03
2023-04-27T01:48:31.082Z,221.01
2023-04-27T01:49:31.105Z,222.50
2023-04-27T01:50:31.164Z,222.25
2023-04-27T01:51:31.197Z,222.95
2023-04-27T01:52:31.158Z,222.12
2023-04-27T01:53:31.171Z,223.14
2023-04-27T01:54:31.207Z,223.03
2023-04-27T01:55:31.265Z,222.75
2023-04-27T01:56:31.258Z,221.61
2023-04-27T01:57:31.253Z,221.64
2023-04-27T01:58:31.273Z,220.73
2023-04-27T01:59:31.284Z,223.63
2023-04-27T02:00:31.317Z,223.65
2023-04-27T02:01:31.461Z,222.16
2023-04-27T02:02:31.485Z,221.60
2023-04-27T02:03:31.630Z,221.21
2023-04-27T02:04:31.486Z,221.45
2023-04-27T02:05:31.486Z,220.07
2023-04-27T02:06:31.474Z,220.84
2023-04-27T02:07:31.498Z,221.58
2023-04-27T02:08:31.564Z,219.01
2023-04-27T02:09:31.614Z,221.49
2023-04-27T02:10:31.649Z,220.87
2023-04-27T02:11:31.674Z,218.84
2023-04-27T02:12:31.682Z,220.27
2023-04-27T02:13:31.707Z,222.72
2023-04-27T02:14:31.754Z,221.20
2023-04-27T02:15:31.785Z,221.87
2023-04-27T02:16:31.861Z,221.77
2023-04-27T02:17:31.997Z,221.32
2023-04-27T02:18:31.931Z,221.76
2023-04-27T02:19:31.972Z,220.59
2023-04-27T02:20:31.998Z,221.04
2023-04-27T02:21:32.008Z,219.87
2023-04-27T02:22:32.076Z,221.35
2023-04-27T02:23:32.165Z,219.26
2023-04-27T02:24:32.164Z,219.52
2023-04-27T02:25:32.241Z,218.59
2023-04-27T02:26:32.219Z,220.06
2023-04-27T02:27:32.273Z,221.55
2023-04-27T02:28:32.366Z,220.95
2023-04-27T02:29:32.345Z,221.08
2023-04-27T02:30:32.428Z,221.09
2023-04-27T02:31:32.587Z,220.43
2023-04-27T02:32:32.532Z,220.02
2023-04-27T02:33:32.539Z,221.02
2023-04-27T02:34:32.539Z,219.29
2023-04-27T02:35:33.306Z,220.91
2023-04-27T02:36:32.627Z,220.37
2023-04-27T02:37:32.675Z,219.64
2023-04-27T02:38:32.681Z,218.74
2023-04-27T02:39:32.756Z,220.10
2023-04-27T02:40:32.783Z,219.86
2023-04-27T02:41:32.859Z,217.29
2023-04-27T02:42:32.892Z,218.83
2023-04-27T02:43:32.930Z,220.34
2023-04-27T02:44:33.006Z,220.85
2023-04-27T02:45:33.034Z,218.75
2023-04-27T02:46:33.114Z,220.21
2023-04-27T02:47:33.168Z,219.16
2023-04-27T02:48:33.177Z,218.80
2023-04-27T02:49:33.197Z,220.47
2023-04-27T02:50:33.228Z,217.62
2023-04-27T02:51:33.281Z,219.68
2023-04-27T02:52:33.308Z,218.62
2023-04-27T02:53:33.408Z,218.84
2023-04-27T02:54:33.437Z,221.77
2023-04-27T02:55:33.446Z,219.01
2023-04-27T02:56:33.468Z,219.50
2023-04-27T02:57:33.496Z,219.49
2023-04-27T02:58:33.553Z,219.86
2023-04-27T02:59:33.552Z,216.60
2023-04-27T03:00:33.603Z,217.57
2023-04-27T03:01:33.669Z,218.51
2023-04-27T03:02:33.796Z,219.41
2023-04-27T03:03:33.846Z,218.82
2023-04-27T03:04:33.762Z,218.44
2023-04-27T03:05:33.862Z,220.09
2023-04-27T03:06:33.853Z,218.53
2023-04-27T03:07:33.901Z,218.54
2023-04-27T03:08:33.933Z,215.75
2023-04-27T03:09:33.945Z,216.60
2023-04-27T03:10:33.992Z,216.49
2023-04-27T03:11:35.309Z,217.41
2023-04-27T03:12:34.083Z,217.41
2023-04-27T03:13:34.113Z,219.30
2023-04-27T03:14:34.168Z,219.05
2023-04-27T03:15:34.207Z,216.85
2023-04-27T03:16:34.298Z,216.76
2023-04-27T03:17:34.276Z,220.43
2023-04-27T03:18:34.312Z,218.76
2023-04-27T03:19:34.356Z,218.62
2023-04-27T03:20:34.422Z,215.98
2023-04-27T03:21:34.503Z,218.58
2023-04-27T03:22:34.507Z,217.57
2023-04-27T03:23:34.513Z,216.79
2023-04-27T03:24:34.539Z,217.90
2023-04-27T03:25:34.651Z,217.92
2023-04-27T03:26:34.616Z,217.12
2023-04-27T03:27:34.682Z,217.75
2023-04-27T03:28:34.720Z,216.91
2023-04-27T03:29:34.763Z,216.55
2023-04-27T03:30:34.789Z,215.50
2023-04-27T03:31:34.868Z,217.54
2023-04-27T03:32:34.886Z,216.43
2023-04-27T03:33:34.923Z,213.55
2023-04-27T03:34:34.973Z,215.36
2023-04-27T03:35:34.979Z,218.00
2023-04-27T03:36:34.986Z,216.10
2023-04-27T03:37:35.047Z,215.97
2023-04-27T03:38:35.085Z,216.81
2023-04-27T03:39:35.140Z,218.44
2023-04-27T03:40:35.171Z,216.78
2023-04-27T03:41:35.232Z,215.68
2023-04-27T03:42:35.247Z,216.54
2023-04-27T03:43:35.287Z,215.92
2023-04-27T03:44:35.329Z,214.47
2023-04-27T03:45:35.474Z,217.86
2023-04-27T03:46:35.493Z,219.08
2023-04-27T03:47:35.578Z,216.11
2023-04-27T03:48:35.574Z,215.59
2023-04-27T03:49:35.567Z,215.44
2023-04-27T03:50:35.667Z,214.37
2023-04-27T03:51:35.652Z,216.41
2023-04-27T03:52:35.748Z,216.29
2023-04-27T03:53:35.775Z,217.59
2023-04-27T03:54:35.877Z,215.11
2023-04-27T03:55:35.852Z,214.00
2023-04-27T03:56:35.867Z,214.81
2023-04-27T03:57:35.998Z,215.23
2023-04-27T03:58:36.001Z,215.17
2023-04-27T03:59:36.089Z,214.39
2023-04-27T04:00:36.107Z,216.56
2023-04-27T04:01:36.148Z,215.53
2023-04-27T04:02:36.334Z,214.19
2023-04-27T04:03:36.311Z,214.74
2023-04-27T04:04:36.503Z,215.44
2023-04-27T04:05:36.347Z,214.61
2023-04-27T04:06:36.439Z,214.25
2023-04-27T04:07:36.492Z,217.14
2023-04-27T04:08:36.497Z,213.43
2023-04-27T04:09:36.600Z,217.67
2023-04-27T04:10:36.598Z,215.98
2023-04-27T04:11:36.643Z,213.35
2023-04-27T04:12:36.676Z,212.51
2023-04-27T04:13:36.778Z,213.82
2023-04-27T04:14:36.812Z,215.07
2023-04-27T04:15:37.389Z,210.86
2023-04-27T04:16:36.912Z,213.02
2023-04-27T04:17:36.970Z,216.87
2023-04-27T04:18:37.018Z,213.91
2023-04-27T04:19:37.067Z,216.23
2023-04-27T04:20:37.097Z,215.20
2023-04-27T04:21:37.157Z,215.76
2023-04-27T04:22:37.224Z,214.75
2023-04-27T04:23:37.253Z,212.84
2023-04-27T04:24:37.306Z,214.60
2023-04-27T04:25:37.335Z,215.03
2023-04-27T04:26:37.410Z,213.32
2023-04-27T04:27:37.474Z,214.19
2023-04-27T04:28:37.487Z,212.51
2023-04-27T04:29:37.560Z,215.09
2023-04-27T04:30:37.581Z,213.89
2023-04-27T04:31:37.727Z,215.64
2023-04-27T04:32:37.901Z,213.48
2023-04-27T04:33:37.739Z,215.22
2023-04-27T04:34:37.806Z,211.52
2023-04-27T04:35:37.830Z,212.62
2023-04-27T04:36:37.900Z,211.73
2023-04-27T04:37:37.979Z,211.96
2023-04-27T04:38:37.984Z,211.07
2023-04-27T04:39:38.047Z,211.74
2023-04-27T04:40:38.082Z,211.90
2023-04-27T04:41:38.150Z,211.53
2023-04-27T04:42:38.326Z,212.12
2023-04-27T04:43:38.233Z,211.99
2023-04-27T04:44:38.288Z,212.64
2023-04-27T04:45:38.426Z,210.96
2023-04-27T04:46:38.425Z,210.78
2023-04-27T04:47:38.477Z,212.65
2023-04-27T04:48:38.474Z,214.14
2023-04-27T04:49:38.614Z,212.42
2023-04-27T04:50:38.620Z,210.85
2023-04-27T04:51:38.641Z,212.71
2023-04-27T04:52:38.690Z,211.24
2023-04-27T04:53:38.776Z,214.42
2023-04-27T04:54:38.774Z,211.12
2023-04-27T04:55:38.861Z,210.93
2023-04-27T04:56:38.897Z,210.54
2023-04-27T04:57:38.963Z,209.74
2023-04-27T04:58:39.021Z,210.82
2023-04-27T04:59:39.130Z,209.28
2023-04-27T05:00:39.109Z,210.58
2023-04-27T05:01:39.172Z,212.18
2023-04-27T05:02:39.349Z,211.60
2023-04-27T05:03:39.362Z,210.15
2023-04-27T05:04:39.437Z,211.80
2023-04-27T05:05:39.334Z,209.34
2023-04-27T05:06:39.394Z,208.96
2023-04-27T05:07:39.457Z,211.15
2023-04-27T05:08:39.529Z,212.56
2023-04-27T05:09:39.528Z,208.25
2023-04-27T05:10:39.601Z,210.49
2023-04-27T05:11:39.809Z,211.71
2023-04-27T05:12:39.678Z,211.32
2023-04-27T05:13:39.759Z,210.78
2023-04-27T05:14:39.762Z,210.63
2023-04-27T05:15:39.907Z,208.95
2023-04-27T05:16:40.007Z,209.68
2023-04-27T05:17:40.018Z,210.63
2023-04-27T05:18:40.023Z,210.44
2023-04-27T05:19:40.031Z,208.66
2023-04-27T05:20:40.062Z,210.98
2023-04-27T05:21:40.091Z,210.63
2023-04-27T05:22:40.126Z,209.69
2023-04-27T05:23:40.255Z,209.78
2023-04-27T05:24:40.238Z,211.38
2023-04-27T05:25:40.334Z,211.26
2023-04-27T05:26:40.366Z,208.41
2023-04-27T05:27:40.433Z,208.90
2023-04-27T05:28:40.505Z,210.97
2023-04-27T05:29:40.513Z,211.19
2023-04-27T05:30:40.592Z,211.30
2023-04-27T05:31:40.767Z,209.92
2023-04-27T05:32:42.419Z,208.99
2023-04-27T05:33:40.750Z,211.59
2023-04-27T05:34:41.050Z,211.59
2023-04-27T05:35:40.828Z,209.86
2023-04-27T05:36:40.863Z,213.46
2023-04-27T05:37:40.979Z,206.84
2023-04-27T05:38:40.938Z,204.68
2023-04-27T05:39:41.005Z,191.08
2023-04-27T05:40:41.030Z,199.67
2023-04-27T05:41:41.045Z,201.93
2023-04-27T05:42:41.376Z,209.64
2023-04-27T05:43:41.321Z,208.72
2023-04-27T05:44:41.164Z,206.06
2023-04-27T05:45:41.246Z,210.86
2023-04-27T05:46:41.253Z,215.09
2023-04-27T05:47:41.438Z,222.01
2023-04-27T05:48:41.328Z,224.80
2023-04-27T05:49:42.382Z,227.55
2023-04-27T05:50:41.431Z,229.16
2023-04-27T05:51:41.445Z,234.45
2023-04-27T05:52:41.916Z,241.51
2023-04-27T05:53:41.542Z,246.69
2023-04-27T05:54:42.456Z,249.35
2023-04-27T05:55:41.571Z,249.98
2023-04-27T05:56:41.549Z,247.33
2023-04-27T05:57:41.627Z,250.17
2023-04-27T05:58:41.703Z,250.27
2023-04-27T05:59:42.424Z,247.50
2023-04-27T06:00:41.923Z,250.05
2023-04-27T06:01:41.906Z,249.14
2023-04-27T06:02:41.944Z,249.44
2023-04-27T06:03:41.857Z,249.51
2023-04-27T06:04:41.773Z,250.49
2023-04-27T06:05:41.868Z,246.91
2023-04-27T06:06:41.854Z,244.96
2023-04-27T06:07:41.834Z,247.91
2023-04-27T06:08:42.120Z,249.38
2023-04-27T06:09:41.831Z,250.00
2023-04-27T06:10:43.434Z,249.02
2023-04-27T06:11:41.858Z,248.39
2023-04-27T06:12:42.748Z,249.67
2023-04-27T06:13:41.825Z,249.47
2023-04-27T06:14:41.881Z,249.55
2023-04-27T06:15:41.932Z,248.48
2023-04-27T06:16:41.900Z,247.89
2023-04-27T06:17:41.945Z,250.00
2023-04-27T06:18:42.030Z,248.59
2023-04-27T06:19:41.936Z,250.00
2023-04-27T06:20:41.986Z,249.16
2023-04-27T06:21:41.917Z,249.86
2023-04-27T06:22:41.995Z,248.09
2023-04-27T06:23:41.976Z,247.78
2023-04-27T06:24:42.006Z,249.33
2023-04-27T06:25:42.047Z,248.09
2023-04-27T06:26:42.200Z,248.51
2023-04-27T06:27:42.248Z,247.30
2023-04-27T06:28:42.453Z,247.95
2023-04-27T06:29:42.308Z,250.00
2023-04-27T06:30:42.287Z,249.23
2023-04-27T06:31:42.363Z,249.34
2023-04-27T06:32:42.452Z,250.00
2023-04-27T06:33:42.397Z,248.56
2023-04-27T06:34:42.489Z,247.75
2023-04-27T06:35:43.249Z,249.06
2023-04-27T06:36:42.499Z,247.44
2023-04-27T06:37:42.610Z,249.14
2023-04-27T06:38:42.592Z,248.96
2023-04-27T06:39:42.701Z,248.99
2023-04-27T06:40:42.679Z,248.76
2023-04-27T06:41:42.745Z,245.82
2023-04-27T06:42:42.915Z,245.70
2023-04-27T06:43:42.852Z,244.94
2023-04-27T06:44:42.880Z,242.46
2023-04-27T06:45:43.032Z,241.92
2023-04-27T06:46:43.056Z,238.01
2023-04-27T06:47:43.902Z,236.45
2023-04-27T06:48:43.033Z,237.08
2023-04-27T06:49:43.062Z,234.50
2023-04-27T06:50:43.694Z,234.06
2023-04-27T06:51:43.145Z,231.20
2023-04-27T06:52:43.249Z,227.28
2023-04-27T06:53:43.898Z,226.00
2023-04-27T06:54:43.245Z,222.51
2023-04-27T06:55:45.030Z,223.22
2023-04-27T06:56:43.296Z,224.44
2023-04-27T06:57:43.313Z,222.89
2023-04-27T06:58:43.286Z,220.86
2023-04-27T06:59:43.285Z,222.45
2023-04-27T07:00:43.260Z,218.25
2023-04-27T07:01:43.285Z,220.25
2023-04-27T07:02:43.341Z,217.93
2023-04-27T07:03:43.398Z,217.33
2023-04-27T07:04:43.268Z,216.87
2023-04-27T07:05:43.196Z,216.65
2023-04-27T07:06:43.185Z,216.00
2023-04-27T07:07:43.212Z,214.86
2023-04-27T07:08:43.213Z,216.53
2023-04-27T07:09:43.180Z,214.93
2023-04-27T07:10:43.387Z,215.68
2023-04-27T07:11:43.231Z,213.99
2023-04-27T07:12:43.177Z,213.94
2023-04-27T07:13:43.151Z,206.17
2023-04-27T07:14:43.177Z,175.17
2023-04-27T07:15:43.513Z,157.13
2023-04-27T07:16:43.208Z,147.92
2023-04-27T07:17:43.148Z,136.79
2023-04-27T07:18:43.725Z,124.94
2023-04-27T07:19:43.119Z,117.65
2023-04-27T07:20:43.166Z,108.40
2023-04-27T07:21:43.137Z,104.34
2023-04-27T07:22:43.129Z,97.73
2023-04-27T07:23:43.099Z,91.96
2023-04-27T07:24:43.341Z,85.93
2023-04-27T07:25:43.128Z,83.11
2023-04-27T07:26:43.085Z,81.36
2023-04-27T07:27:43.159Z,80.96
2023-04-27T07:28:43.080Z,82.36
2023-04-27T07:29:43.193Z,85.56
2023-04-27T07:30:43.084Z,86.72
2023-04-27T07:31:43.150Z,87.53
2023-04-27T07:32:43.126Z,88.24
2023-04-27T07:33:43.057Z,91.62
2023-04-27T07:34:52.592Z,98.32
2023-04-27T07:35:44.425Z,98.71
2023-04-27T07:36:43.020Z,100.16
2023-04-27T07:37:43.031Z,103.40
2023-04-27T07:38:43.423Z,110.28
2023-04-27T07:39:43.038Z,118.85
2023-04-27T07:40:44.767Z,124.20
2023-04-27T07:41:43.026Z,127.82
2023-04-27T07:42:42.977Z,133.03
2023-04-27T07:43:42.972Z,137.50
2023-04-27T07:44:43.022Z,142.94
2023-04-27T07:45:43.030Z,145.18
2023-04-27T07:46:43.430Z,147.67
2023-04-27T07:47:43.103Z,149.13
2023-04-27T07:48:43.480Z,150.52
2023-04-27T07:49:43.005Z,153.48
2023-04-27T07:50:43.595Z,154.74
2023-04-27T07:51:43.033Z,156.15
2023-04-27T07:52:43.067Z,157.42
2023-04-27T07:53:43.088Z,156.79
2023-04-27T07:54:43.096Z,157.94
2023-04-27T07:55:43.581Z,159.56
2023-04-27T07:56:43.152Z,160.34
2023-04-27T07:57:43.152Z,162.50
2023-04-27T07:58:43.257Z,161.78
2023-04-27T07:59:43.239Z,161.53
2023-04-27T08:00:43.214Z,163.76
2023-04-27T08:01:43.308Z,162.00
2023-04-27T08:02:43.531Z,162.21
2023-04-27T08:03:44.103Z,164.35
2023-04-27T08:04:43.622Z,163.27
2023-04-27T08:05:43.751Z,162.46
2023-04-27T08:06:43.608Z,166.13
2023-04-27T08:07:44.722Z,166.22
2023-04-27T08:08:43.515Z,165.19
2023-04-27T08:09:43.451Z,166.53
2023-04-27T08:10:43.511Z,167.21
2023-04-27T08:11:43.496Z,164.69
2023-04-27T08:12:43.527Z,166.67
2023-04-27T08:13:43.536Z,167.28
2023-04-27T08:14:43.582Z,167.15
2023-04-27T08:15:43.584Z,167.52
2023-04-27T08:16:43.705Z,167.33
2023-04-27T08:17:43.648Z,167.19
2023-04-27T08:18:43.643Z,167.40
2023-04-27T08:19:43.673Z,169.64
2023-04-27T08:20:43.716Z,167.16
2023-04-27T08:21:43.762Z,166.15
2023-04-27T08:22:43.791Z,167.12
2023-04-27T08:23:44.043Z,167.29
2023-04-27T08:24:43.865Z,167.10
2023-04-27T08:25:43.835Z,167.45
2023-04-27T08:26:43.829Z,168.20
2023-04-27T08:27:43.933Z,167.13
2023-04-27T08:28:43.903Z,168.21
2023-04-27T08:29:43.929Z,168.69
2023-04-27T08:30:43.952Z,169.70
2023-04-27T08:31:45.057Z,167.89
2023-04-27T08:32:44.090Z,167.36
2023-04-27T08:33:44.031Z,165.97
2023-04-27T08:34:44.201Z,169.98
2023-04-27T08:35:45.081Z,171.21
2023-04-27T08:36:44.097Z,169.36
2023-04-27T08:37:44.180Z,168.00
2023-04-27T08:38:44.136Z,170.92
2023-04-27T08:39:44.176Z,170.11
2023-04-27T08:40:44.209Z,170.55
2023-04-27T08:41:44.246Z,168.36
2023-04-27T08:42:44.223Z,165.74
2023-04-27T08:43:44.364Z,163.24
2023-04-27T08:44:44.287Z,158.69
2023-04-27T08:45:44.333Z,158.41
2023-04-27T08:46:44.498Z,157.22
2023-04-27T08:47:44.496Z,150.85
2023-04-27T08:48:44.460Z,150.64
2023-04-27T08:49:44.517Z,143.57
2023-04-27T08:50:44.500Z,142.15
2023-04-27T08:51:44.613Z,138.44
2023-04-27T08:52:44.595Z,136.86
2023-04-27T08:53:44.608Z,128.68
2023-04-27T08:54:44.672Z,129.56
2023-04-27T08:55:44.698Z,126.95
2023-04-27T08:56:44.736Z,126.38
2023-04-27T08:57:44.783Z,122.65
2023-04-27T08:58:45.061Z,119.88
2023-04-27T08:59:44.862Z,118.49
2023-04-27T09:00:44.912Z,117.24
2023-04-27T09:01:45.081Z,113.08
2023-04-27T09:02:45.115Z,119.33
2023-04-27T09:03:45.236Z,108.78
2023-04-27T09:04:45.175Z,107.98
2023-04-27T09:06:00.164Z,104.02
2023-04-27T09:06:46.986Z,104.13
2023-04-27T09:07:45.150Z,103.81
2023-04-27T09:08:45.190Z,98.14
2023-04-27T09:09:45.139Z,97.83
2023-04-27T09:10:45.134Z,97.53
2023-04-27T09:11:45.111Z,95.49
2023-04-27T09:12:45.280Z,91.91
2023-04-27T09:13:45.120Z,90.77
2023-04-27T09:14:45.175Z,86.14
2023-04-27T09:15:47.772Z,86.65
2023-04-27T09:16:45.330Z,86.70
2023-04-27T09:17:45.215Z,82.66
2023-04-27T09:18:45.196Z,80.80
2023-04-27T09:19:45.979Z,85.20
2023-04-27T09:20:45.194Z,78.19
2023-04-27T09:21:47.316Z,80.84
2023-04-27T09:22:45.417Z,79.83
2023-04-27T09:23:45.463Z,74.49
2023-04-27T09:24:45.429Z,76.49
2023-04-27T09:25:45.506Z,77.91
2023-04-27T09:26:45.502Z,78.21
2023-04-27T09:27:45.549Z,75.28
2023-04-27T09:28:45.612Z,75.28
2023-04-27T09:29:45.674Z,68.09
2023-04-27T09:30:45.713Z,68.67
2023-04-27T09:31:46.005Z,71.04
2023-04-27T09:32:45.997Z,41.17
2023-04-27T09:33:45.882Z,48.30
2023-04-27T09:34:45.903Z,58.40
2023-04-27T09:35:45.961Z,61.36
2023-04-27T09:36:45.974Z,72.23
2023-04-27T09:37:46.131Z,75.69
2023-04-27T09:38:46.235Z,80.23
2023-04-27T09:39:46.134Z,79.09
2023-04-27T09:40:46.138Z,83.95
2023-04-27T09:41:46.193Z,84.51
2023-04-27T09:42:46.248Z,91.68
2023-04-27T09:43:47.010Z,97.30
2023-04-27T09:44:46.294Z,102.37
2023-04-27T09:45:46.423Z,106.62
2023-04-27T09:46:46.388Z,109.85
2023-04-27T09:47:46.449Z,115.93
2023-04-27T09:48:46.420Z,119.18
2023-04-27T09:49:46.430Z,124.77
2023-04-27T09:50:46.466Z,126.09
2023-04-27T09:51:46.484Z,131.71
2023-04-27T09:52:46.541Z,134.86
2023-04-27T09:53:46.539Z,137.07
2023-04-27T09:54:46.569Z,141.77
2023-04-27T09:55:46.580Z,143.67
2023-04-27T09:56:46.594Z,147.86
2023-04-27T09:57:46.658Z,148.05
2023-04-27T09:58:46.609Z,152.40
2023-04-27T09:59:46.635Z,153.57
2023-04-27T10:00:46.674Z,154.78
2023-04-27T10:01:46.753Z,159.91
2023-04-27T10:02:53.115Z,159.55
2023-04-27T10:03:48.575Z,159.76
2023-04-27T10:04:46.702Z,160.66
2023-04-27T10:05:46.690Z,162.61
2023-04-27T10:06:46.698Z,166.17
2023-04-27T10:07:46.668Z,172.06
2023-04-27T10:08:46.672Z,174.01
2023-04-27T10:09:46.653Z,177.90
2023-04-27T10:10:46.641Z,181.02
2023-04-27T10:11:46.655Z,180.68
2023-04-27T10:12:46.637Z,183.08
2023-04-27T10:13:46.632Z,187.07
2023-04-27T10:14:46.688Z,188.72
2023-04-27T10:15:46.733Z,187.28
2023-04-27T10:16:46.963Z,182.77
2023-04-27T10:17:46.881Z,182.91
2023-04-27T10:18:46.867Z,183.98
2023-04-27T10:19:46.901Z,186.13
2023-04-27T10:20:47.060Z,187.33
2023-04-27T10:21:47.001Z,188.37
2023-04-27T10:22:47.042Z,188.81
2023-04-27T10:23:47.082Z,190.85
2023-04-27T10:24:47.182Z,193.38
2023-04-27T10:25:47.157Z,193.18
2023-04-27T10:26:47.247Z,192.81
2023-04-27T10:27:47.241Z,197.00
2023-04-27T10:28:47.346Z,191.43
2023-04-27T10:29:47.601Z,164.25
2023-04-27T10:30:47.605Z,133.85
2023-04-27T10:31:47.416Z,133.65
2023-04-27T10:32:48.048Z,110.73
2023-04-27T10:33:47.496Z,117.07
2023-04-27T10:34:48.035Z,119.89
2023-04-27T10:35:47.539Z,120.95
2023-04-27T10:36:47.569Z,121.92
2023-04-27T10:37:47.631Z,127.51
2023-04-27T10:38:47.678Z,124.27
2023-04-27T10:39:49.850Z,125.38
2023-04-27T10:40:47.690Z,132.00
2023-04-27T10:41:48.008Z,131.71
2023-04-27T10:42:47.620Z,135.42
2023-04-27T10:43:48.519Z,135.54
2023-04-27T10:44:47.608Z,142.73
2023-04-27T10:45:47.601Z,151.39
2023-04-27T10:46:47.600Z,151.07
2023-04-27T10:47:47.644Z,152.27
2023-04-27T10:48:47.579Z,146.22
2023-04-27T10:49:47.631Z,152.06
2023-04-27T10:50:47.614Z,139.87
2023-04-27T10:51:47.596Z,150.67
2023-04-27T10:52:47.621Z,153.33
2023-04-27T10:53:47.636Z,147.70
2023-04-27T10:54:47.545Z,141.92
2023-04-27T10:55:47.559Z,144.07
2023-04-27T10:56:47.535Z,144.27
2023-04-27T10:57:47.525Z,145.38
2023-04-27T10:58:49.398Z,143.82
2023-04-27T10:59:47.531Z,143.69
2023-04-27T11:00:47.499Z,145.28
2023-04-27T11:01:47.710Z,143.31
2023-04-27T11:02:47.589Z,145.34
2023-04-27T11:03:47.573Z,142.93
2023-04-27T11:04:47.561Z,140.22
2023-04-27T11:05:47.555Z,139.10
2023-04-27T11:06:47.614Z,134.03
2023-04-27T11:07:47.630Z,135.29
2023-04-27T11:08:47.716Z,134.61
2023-04-27T11:09:47.722Z,133.25
2023-04-27T11:10:48.031Z,134.49
2023-04-27T11:11:47.800Z,133.59
2023-04-27T11:12:47.839Z,118.82
2023-04-27T11:13:47.984Z,118.12
2023-04-27T11:14:47.913Z,123.66
2023-04-27T11:15:47.965Z,129.04
2023-04-27T11:16:48.028Z,125.27
2023-04-27T11:17:48.026Z,126.83
2023-04-27T11:18:48.050Z,128.92
2023-04-27T11:19:48.220Z,133.31
2023-04-27T11:20:48.141Z,135.19
2023-04-27T11:21:48.571Z,157.54
2023-04-27T11:22:48.206Z,158.31
2023-04-27T11:23:48.243Z,153.67
2023-04-27T11:24:48.558Z,155.90
2023-04-27T11:25:48.311Z,155.05
2023-04-27T11:26:48.551Z,157.03
2023-04-27T11:27:48.412Z,158.84
2023-04-27T11:28:48.428Z,159.41
2023-04-27T11:29:48.553Z,160.25
2023-04-27T11:30:48.530Z,160.80
2023-04-27T11:31:49.244Z,162.73
2023-04-27T11:32:48.687Z,160.55
2023-04-27T11:33:48.682Z,160.94
2023-04-27T11:34:48.755Z,159.62
2023-04-27T11:35:48.756Z,163.10
2023-04-27T11:36:49.048Z,163.29
2023-04-27T11:37:48.850Z,162.51
2023-04-27T11:38:48.933Z,160.37
2023-04-27T11:39:48.994Z,161.99
2023-04-27T11:40:49.010Z,160.52
2023-04-27T11:41:49.099Z,161.24
2023-04-27T11:42:49.146Z,160.74
2023-04-27T11:43:49.386Z,159.61
2023-04-27T11:44:49.237Z,159.55
2023-04-27T11:45:49.302Z,160.17
2023-04-27T11:46:49.450Z,158.93
2023-04-27T11:47:49.434Z,159.87
2023-04-27T11:48:49.436Z,159.95
2023-04-27T11:49:49.492Z,160.00
2023-04-27T11:50:49.543Z,158.87
2023-04-27T11:51:49.597Z,156.41
2023-04-27T11:52:49.653Z,156.10
2023-04-27T11:53:49.739Z,156.70
2023-04-27T11:54:49.731Z,154.04
2023-04-27T11:55:49.797Z,153.63
2023-04-27T11:56:49.841Z,150.99
2023-04-27T11:57:49.927Z,152.66
2023-04-27T11:58:49.965Z,150.81
2023-04-27T11:59:50.042Z,148.89
2023-04-27T12:00:50.052Z,149.83
2023-04-27T12:01:50.101Z,149.19
2023-04-27T12:02:50.226Z,149.38
2023-04-27T12:03:50.380Z,146.61
2023-04-27T12:04:50.485Z,148.55
2023-04-27T12:05:50.366Z,145.08
2023-04-27T12:06:50.320Z,143.93
2023-04-27T12:07:50.432Z,140.70
2023-04-27T12:08:50.398Z,140.06
2023-04-27T12:09:50.450Z,140.44
2023-04-27T12:10:50.486Z,137.52
2023-04-27T12:11:50.519Z,136.41
2023-04-27T12:12:50.532Z,136.21
2023-04-27T12:13:50.626Z,135.26
2023-04-27T12:14:50.629Z,134.70
2023-04-27T12:15:50.640Z,135.74
2023-04-27T12:16:50.786Z,135.96
2023-04-27T12:17:50.745Z,133.39
2023-04-27T12:18:50.692Z,132.90
2023-04-27T12:19:50.764Z,133.89
2023-04-27T12:20:50.771Z,134.63
2023-04-27T12:21:50.794Z,134.57
2023-04-27T12:22:50.843Z,134.62
2023-04-27T12:23:50.841Z,136.52
2023-04-27T12:24:50.872Z,134.28
2023-04-27T12:25:50.868Z,135.60
2023-04-27T12:26:50.936Z,133.97
2023-04-27T12:27:50.962Z,134.59
2023-04-27T12:28:50.883Z,135.61
2023-04-27T12:29:50.884Z,136.87
2023-04-27T12:30:50.964Z,135.60